Time;durP1;ratioP1;P1;durP2;ratioP2;P2;SDS_P1;SDS_P2;PMS_P1;PMS_P2;Temp;Humidity;BMP_temperature;BMP_pressure;BME280_temperature;BME280_humidity;BME280_pressure;Samples;Min_cycle;Max_cycle;Signal;HPM_P1;HPM_P2
2021/05/09 00:02:09;;;;;;;5.00;4.60;;;12.30;99.90;;;;;;5039183;28;20179;-65
2021/05/09 00:04:35;;;;;;;6.07;4.90;;;12.30;99.90;;;;;;5031872;28;20175;-65
2021/05/09 00:07:02;;;;;;;7.93;4.50;;;12.30;99.90;;;;;;5042201;28;20547;-65
2021/05/09 00:09:27;;;;;;;5.37;4.83;;;12.20;99.90;;;;;;5049858;28;20178;-65
2021/05/09 00:11:53;;;;;;;5.20;4.60;;;12.20;99.90;;;;;;5051149;28;20206;-65
2021/05/09 00:14:19;;;;;;;7.40;5.23;;;12.20;99.90;;;;;;5045283;28;20250;-65
2021/05/09 00:16:44;;;;;;;10.10;5.07;;;12.10;99.90;;;;;;5031683;28;20171;-65
2021/05/09 00:19:10;;;;;;;5.47;4.50;;;12.10;99.90;;;;;;5035880;28;20171;-65
2021/05/09 00:21:36;;;;;;;5.00;4.60;;;12.00;99.90;;;;;;5051230;28;20190;-65
2021/05/09 00:24:02;;;;;;;5.60;5.07;;;11.90;99.90;;;;;;5048423;28;20182;-65
2021/05/09 00:26:27;;;;;;;5.53;5.07;;;11.90;99.90;;;;;;5031624;28;20173;-64
2021/05/09 00:28:53;;;;;;;5.23;4.77;;;11.90;99.90;;;;;;5038849;28;20182;-65
2021/05/09 00:31:18;;;;;;;9.33;8.33;;;11.80;99.90;;;;;;5053252;28;20753;-64
2021/05/09 00:33:44;;;;;;;11.70;8.50;;;11.70;99.90;;;;;;5049756;28;20258;-65
2021/05/09 00:36:10;;;;;;;7.93;7.13;;;11.60;99.90;;;;;;5035476;28;20179;-65
2021/05/09 00:38:35;;;;;;;9.07;6.40;;;11.50;99.90;;;;;;5051677;28;20261;-65
2021/05/09 00:41:01;;;;;;;7.90;5.80;;;11.50;99.90;;;;;;5054488;28;20214;-65
2021/05/09 00:43:27;;;;;;;5.73;5.23;;;11.40;99.90;;;;;;5040615;28;20189;-65
2021/05/09 00:45:53;;;;;;;8.27;5.83;;;11.30;99.90;;;;;;5035333;28;20191;-64
2021/05/09 00:48:19;;;;;;;5.60;5.10;;;11.30;99.90;;;;;;5048122;28;20189;-65
2021/05/09 00:50:45;;;;;;;6.17;5.77;;;11.40;99.90;;;;;;5054888;28;20190;-64
2021/05/09 00:53:13;;;;;;;6.87;6.00;;;11.40;99.90;;;;;;5043763;28;20188;-64
2021/05/09 00:55:39;;;;;;;8.97;6.13;;;11.30;99.90;;;;;;5035341;28;20209;-65
2021/05/09 00:58:07;;;;;;;7.57;5.57;;;11.40;99.90;;;;;;5044750;28;20186;-64
2021/05/09 01:00:33;;;;;;;6.03;5.43;;;11.50;99.90;;;;;;5054754;28;20278;-65
2021/05/09 01:03:06;;;;;;;6.23;5.63;;;11.50;99.90;;;;;;5046421;28;20704;-65
2021/05/09 01:05:32;;;;;;;6.23;5.63;;;11.60;99.90;;;;;;5041681;28;20179;-64
2021/05/09 01:07:58;;;;;;;6.03;5.60;;;11.60;99.90;;;;;;5054830;28;20174;-65
2021/05/09 01:10:23;;;;;;;6.50;5.80;;;11.70;99.90;;;;;;5049426;28;20214;-64
2021/05/09 01:12:50;;;;;;;6.07;5.47;;;11.70;99.90;;;;;;5034879;28;20211;-64
2021/05/09 01:15:16;;;;;;;6.40;5.80;;;11.70;99.90;;;;;;5038035;28;20171;-65
2021/05/09 01:17:41;;;;;;;5.83;5.23;;;11.60;99.90;;;;;;5054805;28;20249;-64
2021/05/09 01:20:13;;;;;;;5.97;5.47;;;11.70;99.90;;;;;;5052468;28;20198;-65
2021/05/09 01:22:39;;;;;;;6.00;5.40;;;11.70;99.90;;;;;;5034816;28;20207;-64
2021/05/09 01:25:09;;;;;;;6.17;5.67;;;11.70;99.90;;;;;;5035214;28;20183;-64
2021/05/09 01:27:35;;;;;;;6.30;5.80;;;11.70;99.90;;;;;;5054674;28;20179;-64
2021/05/09 01:30:01;;;;;;;6.17;5.63;;;11.70;99.90;;;;;;5053972;28;20218;-65
2021/05/09 01:32:27;;;;;;;5.80;5.40;;;11.80;99.90;;;;;;5054498;28;20288;-64
2021/05/09 01:34:52;;;;;;;6.10;5.50;;;11.80;99.90;;;;;;5037453;28;20172;-65
2021/05/09 01:37:18;;;;;;;6.30;5.50;;;11.80;99.90;;;;;;5034404;28;20717;-64
2021/05/09 01:39:44;;;;;;;6.93;5.20;;;11.90;99.90;;;;;;5048889;28;20198;-64
2021/05/09 01:42:10;;;;;;;5.60;5.20;;;11.70;99.90;;;;;;5053909;28;20253;-64
2021/05/09 01:44:35;;;;;;;6.20;5.63;;;11.70;99.90;;;;;;5040814;28;20187;-65
2021/05/09 01:47:01;;;;;;;5.73;5.33;;;11.70;99.90;;;;;;5035513;28;20530;-64
2021/05/09 01:49:27;;;;;;;6.57;5.80;;;11.60;99.90;;;;;;5035344;28;20270;-65
2021/05/09 01:51:54;;;;;;;6.07;5.53;;;11.60;99.90;;;;;;5033649;28;20203;-65
2021/05/09 01:54:20;;;;;;;6.03;5.53;;;11.60;99.90;;;;;;5044217;28;20266;-64
2021/05/09 01:56:46;;;;;;;6.60;5.47;;;11.50;99.90;;;;;;5054073;28;20241;-64
2021/05/09 01:59:11;;;;;;;5.80;5.27;;;11.50;99.90;;;;;;5044771;28;20270;-64
2021/05/09 02:01:37;;;;;;;7.27;5.67;;;11.50;99.90;;;;;;5038449;28;20664;-64
2021/05/09 02:04:03;;;;;;;5.87;5.27;;;11.40;99.90;;;;;;5053792;28;20267;-64
2021/05/09 02:06:29;;;;;;;6.13;5.67;;;11.40;99.90;;;;;;5050298;28;20183;-64
2021/05/09 02:08:54;;;;;;;5.60;5.10;;;11.30;99.90;;;;;;5034663;28;20242;-69
2021/05/09 02:11:20;;;;;;;5.60;5.20;;;11.30;99.90;;;;;;5051660;28;20211;-69
2021/05/09 02:13:46;;;;;;;6.70;5.50;;;11.20;99.90;;;;;;5033546;28;20262;-68
2021/05/09 02:16:11;;;;;;;5.27;4.87;;;11.20;99.90;;;;;;5035070;28;20168;-67
2021/05/09 02:18:37;;;;;;;5.47;5.07;;;11.20;99.90;;;;;;5055394;28;20689;-66
2021/05/09 02:21:03;;;;;;;6.00;5.40;;;11.10;99.90;;;;;;5054749;28;20278;-65
2021/05/09 02:23:29;;;;;;;5.50;5.00;;;11.10;99.90;;;;;;5037010;28;20183;-66
2021/05/09 02:25:55;;;;;;;5.37;4.97;;;11.10;99.90;;;;;;5035449;28;20641;-67
2021/05/09 02:28:20;;;;;;;5.13;4.70;;;11.00;99.90;;;;;;5036584;28;20219;-68
2021/05/09 02:30:46;;;;;;;7.73;5.40;;;11.00;99.90;;;;;;5033722;28;20253;-68
2021/05/09 02:33:13;;;;;;;6.23;5.00;;;11.00;99.90;;;;;;5052477;28;20182;-69
2021/05/09 02:35:38;;;;;;;5.87;5.23;;;11.00;99.90;;;;;;5055248;28;20171;-67
2021/05/09 02:38:04;;;;;;;5.67;5.13;;;10.90;99.90;;;;;;5039437;28;20183;-66
2021/05/09 02:40:30;;;;;;;6.20;5.70;;;10.90;99.90;;;;;;5034195;28;20199;-67
2021/05/09 02:42:56;;;;;;;6.10;5.47;;;10.80;99.90;;;;;;5048684;28;20174;-67
2021/05/09 02:45:22;;;;;;;6.33;5.83;;;10.80;99.90;;;;;;5055189;28;20245;-67
2021/05/09 02:47:47;;;;;;;6.50;5.43;;;10.70;99.90;;;;;;5042370;28;20175;-67
2021/05/09 02:50:13;;;;;;;5.73;5.33;;;10.70;99.90;;;;;;5033898;28;20192;-68
2021/05/09 02:52:39;;;;;;;7.00;5.57;;;10.70;99.90;;;;;;5044687;28;20210;-68
2021/05/09 02:55:06;;;;;;;6.37;5.70;;;10.70;99.90;;;;;;5046353;28;20175;-66
2021/05/09 02:57:32;;;;;;;6.63;5.37;;;10.60;99.90;;;;;;5034664;28;20182;-66
2021/05/09 02:59:57;;;;;;;5.50;5.00;;;10.60;99.90;;;;;;5039528;28;20198;-67
2021/05/09 03:02:23;;;;;;;5.70;5.17;;;10.60;99.90;;;;;;5053188;28;20194;-69
2021/05/09 03:04:49;;;;;;;6.47;5.87;;;10.50;99.90;;;;;;5049917;28;20202;-68
2021/05/09 03:07:15;;;;;;;5.87;5.27;;;10.60;99.90;;;;;;5035013;28;20703;-67
2021/05/09 03:09:40;;;;;;;7.73;6.47;;;10.60;99.90;;;;;;5036761;28;20187;-67
2021/05/09 03:12:07;;;;;;;5.93;5.40;;;10.50;99.90;;;;;;5053934;28;20206;-68
2021/05/09 03:14:32;;;;;;;8.63;5.73;;;10.50;99.90;;;;;;5053478;28;20665;-66
2021/05/09 03:16:58;;;;;;;6.50;5.90;;;10.60;99.90;;;;;;5034057;28;20233;-71
2021/05/09 03:19:24;;;;;;;5.80;5.30;;;10.60;99.90;;;;;;5034462;28;20537;-68
2021/05/09 03:21:49;;;;;;;8.70;5.90;;;10.50;99.90;;;;;;5033963;28;20227;-67
2021/05/09 03:24:15;;;;;;;9.40;5.97;;;10.60;99.90;;;;;;5050293;28;20253;-69
2021/05/09 03:26:40;;;;;;;7.10;5.63;;;10.60;99.90;;;;;;5054267;28;20174;-69
2021/05/09 03:29:07;;;;;;;5.77;5.27;;;10.60;99.90;;;;;;5049655;28;20536;-66
2021/05/09 03:31:33;;;;;;;7.97;5.80;;;10.60;99.90;;;;;;5053674;28;20229;-68
2021/05/09 03:33:59;;;;;;;7.40;5.60;;;10.60;99.90;;;;;;5040559;28;20179;-68
2021/05/09 03:36:25;;;;;;;6.60;5.43;;;10.60;99.90;;;;;;5033887;28;20678;-66
2021/05/09 03:38:50;;;;;;;6.00;5.50;;;10.50;99.90;;;;;;5044676;28;20265;-65
2021/05/09 03:41:16;;;;;;;5.80;5.30;;;10.50;99.90;;;;;;5053514;28;20238;-70
2021/05/09 03:43:42;;;;;;;5.80;5.40;;;10.50;99.90;;;;;;5044297;28;20584;-66
2021/05/09 03:46:08;;;;;;;6.20;5.60;;;10.50;99.90;;;;;;5033120;28;20665;-68
2021/05/09 03:48:34;;;;;;;6.97;6.47;;;10.50;99.90;;;;;;5041710;28;20175;-65
2021/05/09 03:51:00;;;;;;;6.40;5.40;;;10.50;99.90;;;;;;5048017;28;20241;-66
2021/05/09 03:53:27;;;;;;;6.27;5.67;;;10.50;99.90;;;;;;5032061;28;20183;-63
2021/05/09 03:55:53;;;;;;;6.70;6.10;;;10.40;99.90;;;;;;5035360;28;20174;-63
2021/05/09 03:58:18;;;;;;;6.00;5.47;;;10.40;99.90;;;;;;5051720;28;20174;-63
2021/05/09 04:00:44;;;;;;;7.73;6.27;;;10.30;99.90;;;;;;5049390;28;20183;-63
2021/05/09 04:03:24;;;;;;;6.43;5.83;;;10.30;99.90;;;;;;5031764;28;20171;-63
2021/05/09 04:05:53;;;;;;;5.87;5.37;;;10.30;99.90;;;;;;5032913;28;20637;-63
2021/05/09 04:08:28;;;;;;;6.90;5.63;;;10.20;99.90;;;;;;5051577;28;20187;-63
2021/05/09 04:10:56;;;;;;;6.57;5.40;;;10.20;99.90;;;;;;5048877;28;20701;-63
2021/05/09 04:13:22;;;;;;;6.27;5.77;;;10.30;99.90;;;;;;5031843;28;20164;-63
2021/05/09 04:15:49;;;;;;;6.10;5.60;;;10.30;99.90;;;;;;5032416;28;20175;-63
2021/05/09 04:18:15;;;;;;;5.93;5.43;;;10.30;99.90;;;;;;5051353;28;20544;-63
2021/05/09 04:20:41;;;;;;;6.57;6.00;;;10.40;99.90;;;;;;5051260;28;20199;-63
2021/05/09 04:23:17;;;;;;;6.43;5.87;;;10.40;99.90;;;;;;5032276;28;20542;-63
2021/05/09 04:25:51;;;;;;;7.33;6.60;;;10.40;99.90;;;;;;5038722;28;20276;-63
2021/05/09 04:28:17;;;;;;;5.77;5.23;;;10.50;99.90;;;;;;5051373;28;20163;-63
2021/05/09 04:30:43;;;;;;;6.27;5.73;;;10.50;99.90;;;;;;5044088;28;20673;-63
2021/05/09 04:33:09;;;;;;;6.17;5.50;;;10.60;99.90;;;;;;5050341;28;20170;-63
2021/05/09 04:35:36;;;;;;;6.10;5.50;;;10.60;99.90;;;;;;5046317;28;20185;-63
2021/05/09 04:38:03;;;;;;;5.77;5.27;;;10.70;99.90;;;;;;5031329;28;20521;-63
2021/05/09 04:40:29;;;;;;;6.03;5.37;;;10.80;99.90;;;;;;5032163;28;20209;-63
2021/05/09 04:42:56;;;;;;;5.33;4.93;;;11.00;99.90;;;;;;5030188;28;20171;-63
2021/05/09 04:45:21;;;;;;;6.07;4.87;;;11.20;99.90;;;;;;5033362;28;20645;-63
2021/05/09 04:47:47;;;;;;;6.03;4.40;;;11.40;99.90;;;;;;5051318;28;20210;-64
2021/05/09 04:50:14;;;;;;;4.60;4.30;;;11.70;99.90;;;;;;5050071;28;20191;-63
2021/05/09 04:52:40;;;;;;;4.40;4.00;;;11.90;99.90;;;;;;5031286;28;20200;-63
2021/05/09 04:55:07;;;;;;;4.60;4.20;;;12.10;99.90;;;;;;5029989;28;20214;-63
2021/05/09 04:57:33;;;;;;;5.23;4.43;;;12.30;99.90;;;;;;5050116;28;20186;-64
2021/05/09 05:00:00;;;;;;;4.63;4.23;;;12.30;99.90;;;;;;5050734;28;20197;-64
2021/05/09 05:02:26;;;;;;;4.70;4.30;;;12.30;99.90;;;;;;5032462;28;20684;-64
2021/05/09 05:04:52;;;;;;;4.57;4.27;;;12.30;99.90;;;;;;5031202;28;20207;-63
2021/05/09 05:07:17;;;;;;;4.60;4.30;;;12.30;99.90;;;;;;5047437;28;20197;-63
2021/05/09 05:09:43;;;;;;;4.40;4.00;;;12.30;99.90;;;;;;5050899;28;20186;-63
2021/05/09 05:12:09;;;;;;;3.90;3.60;;;12.40;99.90;;;;;;5034702;28;20219;-64
2021/05/09 05:14:35;;;;;;;4.73;4.10;;;12.60;99.90;;;;;;5031218;28;20250;-63
2021/05/09 05:17:01;;;;;;;4.80;4.33;;;12.70;99.90;;;;;;5046560;28;20174;-63
2021/05/09 05:19:27;;;;;;;4.67;4.20;;;12.90;99.90;;;;;;5054744;28;20308;-63
2021/05/09 05:21:52;;;;;;;4.63;4.23;;;13.00;99.90;;;;;;5040833;28;20262;-63
2021/05/09 05:24:18;;;;;;;4.83;4.40;;;12.90;99.90;;;;;;5051646;28;20194;-63
2021/05/09 05:26:44;;;;;;;4.43;4.13;;;12.90;99.90;;;;;;5042862;28;20175;-63
2021/05/09 05:29:09;;;;;;;5.03;4.40;;;12.80;99.90;;;;;;5034676;28;20254;-63
2021/05/09 05:31:35;;;;;;;4.50;4.20;;;12.80;99.90;;;;;;5040454;28;20203;-63
2021/05/09 05:34:02;;;;;;;4.57;4.27;;;12.90;99.90;;;;;;5034552;28;20168;-64
2021/05/09 05:36:30;;;;;;;4.53;4.23;;;13.10;99.90;;;;;;5041533;28;20182;-64
2021/05/09 05:38:56;;;;;;;4.57;4.27;;;13.30;99.90;;;;;;5034473;28;20164;-64
2021/05/09 05:41:22;;;;;;;4.20;3.90;;;13.60;99.90;;;;;;5042476;28;20293;-64
2021/05/09 05:43:47;;;;;;;4.60;4.20;;;13.90;99.90;;;;;;5035637;28;20215;-64
2021/05/09 05:46:13;;;;;;;4.80;3.70;;;14.20;99.90;;;;;;5040899;28;20217;-64
2021/05/09 05:48:39;;;;;;;4.57;3.67;;;14.50;99.90;;;;;;5054271;28;20249;-64
2021/05/09 05:51:04;;;;;;;3.93;3.63;;;14.80;99.90;;;;;;5047648;28;20207;-64
2021/05/09 05:53:30;;;;;;;4.10;3.70;;;15.10;99.90;;;;;;5034273;28;20172;-64
2021/05/09 05:55:56;;;;;;;6.87;3.50;;;15.20;99.90;;;;;;5038371;28;20170;-64
2021/05/09 05:58:22;;;;;;;3.30;3.00;;;15.50;99.90;;;;;;5053967;28;20206;-64
2021/05/09 06:00:48;;;;;;;4.90;3.70;;;15.70;99.90;;;;;;5049856;28;20617;-64
2021/05/09 06:03:14;;;;;;;3.50;3.20;;;16.00;99.90;;;;;;5033816;28;20190;-64
2021/05/09 06:05:42;;;;;;;3.67;3.37;;;16.20;99.90;;;;;;5035715;28;20169;-64
2021/05/09 06:08:07;;;;;;;3.70;3.40;;;16.40;99.90;;;;;;5053587;28;20171;-63
2021/05/09 06:10:33;;;;;;;4.97;3.50;;;16.60;99.90;;;;;;5051750;28;20201;-64
2021/05/09 06:12:59;;;;;;;3.93;3.30;;;16.70;99.90;;;;;;5052028;28;20692;-64
2021/05/09 06:15:25;;;;;;;5.57;3.50;;;16.80;99.90;;;;;;5035451;28;20535;-64
2021/05/09 06:17:51;;;;;;;3.80;2.70;;;17.00;99.90;;;;;;5033662;28;20214;-64
2021/05/09 06:20:17;;;;;;;3.47;3.17;;;17.00;99.90;;;;;;5047575;28;20206;-64
2021/05/09 06:22:43;;;;;;;3.30;3.00;;;17.00;99.90;;;;;;5043205;28;20539;-63
2021/05/09 06:25:09;;;;;;;3.80;3.30;;;17.20;99.90;;;;;;5034341;28;20177;-64
2021/05/09 06:27:35;;;;;;;3.73;3.43;;;17.40;99.90;;;;;;5053244;28;20179;-64
2021/05/09 06:30:02;;;;;;;3.33;3.00;;;17.50;99.90;;;;;;5052179;28;20694;-64
2021/05/09 06:32:27;;;;;;;2.93;2.63;;;17.70;99.90;;;;;;5033650;28;20223;-64
2021/05/09 06:34:53;;;;;;;2.97;2.77;;;17.90;99.90;;;;;;5033248;28;20637;-64
2021/05/09 06:37:19;;;;;;;3.60;2.73;;;18.10;99.90;;;;;;5046961;28;20181;-64
2021/05/09 06:39:45;;;;;;;3.07;2.87;;;18.30;99.90;;;;;;5052892;28;20175;-64
2021/05/09 06:42:10;;;;;;;3.20;3.00;;;18.50;99.90;;;;;;5035745;28;20191;-64
2021/05/09 06:44:42;;;;;;;3.20;2.93;;;18.60;99.90;;;;;;5041208;28;20183;-64
2021/05/09 06:47:08;;;;;;;3.20;2.90;;;18.80;99.90;;;;;;5052892;28;20545;-64
2021/05/09 06:49:33;;;;;;;4.27;2.77;;;19.00;99.90;;;;;;5044318;28;20189;-64
2021/05/09 06:51:59;;;;;;;3.00;2.80;;;19.20;99.90;;;;;;5047394;28;20207;-64
2021/05/09 06:54:25;;;;;;;2.87;2.67;;;19.60;99.90;;;;;;5045927;28;20241;-65
2021/05/09 06:56:51;;;;;;;6.30;3.10;;;19.80;99.90;;;;;;5033026;28;20531;-64
2021/05/09 06:59:18;;;;;;;4.03;2.80;;;19.90;99.90;;;;;;5037711;28;20171;-64
2021/05/09 07:01:44;;;;;;;3.65;2.95;;;19.70;99.90;;;;;;5039602;28;20203;-65
2021/05/09 07:04:09;;;;;;;2.92;2.72;;;19.80;99.90;;;;;;5035936;28;20179;-64
2021/05/09 07:06:35;;;;;;;4.10;3.15;;;19.80;99.90;;;;;;5052774;28;20186;-64
2021/05/09 07:09:05;;;;;;;3.08;2.80;;;19.90;99.90;;;;;;5050450;28;20174;-64
2021/05/09 07:11:31;;;;;;;3.55;2.90;;;19.90;99.90;;;;;;5042572;28;20213;-64
2021/05/09 07:13:57;;;;;;;3.23;2.93;;;19.90;99.90;;;;;;5051358;28;20639;-64
2021/05/09 07:16:24;;;;;;;3.00;2.70;;;19.80;99.90;;;;;;5032505;28;20183;-64
2021/05/09 07:18:50;;;;;;;3.10;2.90;;;19.90;99.90;;;;;;5032599;28;20536;-64
2021/05/09 07:21:18;;;;;;;3.33;2.70;;;20.00;99.90;;;;;;5042460;28;20274;-64
2021/05/09 07:23:48;;;;;;;2.80;2.58;;;20.30;99.90;;;;;;5034125;28;20171;-64
2021/05/09 07:26:14;;;;;;;3.50;2.88;;;20.80;99.90;;;;;;5039547;28;20175;-64
2021/05/09 07:28:40;;;;;;;3.42;2.60;;;21.20;99.90;;;;;;5051349;28;20663;-64
2021/05/09 07:31:06;;;;;;;4.32;2.90;;;21.40;99.90;;;;;;5038166;28;20207;-64
2021/05/09 07:33:32;;;;;;;2.75;2.50;;;21.50;99.90;;;;;;5052191;28;20521;-64
2021/05/09 07:35:58;;;;;;;3.80;2.60;;;21.90;99.90;;;;;;5032793;28;20206;-64
2021/05/09 07:38:23;;;;;;;3.40;2.90;;;22.00;99.90;;;;;;5032126;28;20168;-64
2021/05/09 07:40:49;;;;;;;2.70;2.50;;;22.10;99.90;;;;;;5044101;28;20203;-64
2021/05/09 07:43:15;;;;;;;2.60;2.40;;;22.30;99.90;;;;;;5032026;28;20174;-64
2021/05/09 07:45:42;;;;;;;2.80;2.60;;;22.70;99.90;;;;;;5033287;28;20544;-64
2021/05/09 07:48:09;;;;;;;3.40;2.70;;;22.90;99.90;;;;;;5031983;28;20273;-64
2021/05/09 07:50:36;;;;;;;3.88;2.85;;;22.60;99.90;;;;;;5044404;28;20218;-64
2021/05/09 07:53:02;;;;;;;4.00;2.50;;;22.40;99.90;;;;;;5031702;28;20289;-64
2021/05/09 07:55:28;;;;;;;3.78;2.70;;;22.20;99.90;;;;;;5045158;28;20183;-64
2021/05/09 07:57:54;;;;;;;3.92;2.70;;;22.10;99.90;;;;;;5051360;28;20167;-64
2021/05/09 08:00:20;;;;;;;4.03;2.75;;;22.10;99.90;;;;;;5039122;28;20195;-64
2021/05/09 08:02:48;;;;;;;3.88;2.60;;;22.10;99.90;;;;;;5031869;28;20171;-64
2021/05/09 08:05:15;;;;;;;4.63;2.80;;;22.40;99.90;;;;;;5042093;28;20183;-64
2021/05/09 08:07:59;;;;;;;4.72;2.88;;;22.80;99.90;;;;;;5050482;28;20610;-64
2021/05/09 08:10:26;;;;;;;8.43;3.15;;;23.50;99.90;;;;;;5045735;28;20205;-64
2021/05/09 08:12:53;;;;;;;3.55;3.25;;;24.10;99.90;;;;;;5034982;28;20637;-64
2021/05/09 08:15:21;;;;;;;3.53;2.67;;;24.20;99.90;;;;;;5031681;28;20189;-64
2021/05/09 08:17:47;;;;;;;2.70;2.50;;;24.00;99.90;;;;;;5041536;28;20644;-64
2021/05/09 08:20:13;;;;;;;3.40;2.80;;;23.70;99.90;;;;;;5050923;28;20194;-64
2021/05/09 08:22:39;;;;;;;5.78;2.90;;;23.40;99.90;;;;;;5042951;28;20195;-64
2021/05/09 08:25:06;;;;;;;2.80;2.47;;;23.30;99.90;;;;;;5033672;28;20665;-65
2021/05/09 08:27:34;;;;;;;3.28;2.90;;;23.20;99.90;;;;;;5051451;28;20257;-64
2021/05/09 08:30:04;;;;;;;4.57;2.40;;;23.20;99.90;;;;;;5049545;28;20198;-64
2021/05/09 08:32:30;;;;;;;5.03;2.88;;;23.20;99.90;;;;;;5029909;28;20265;-64
2021/05/09 08:34:58;;;;;;;3.17;2.53;;;23.20;99.90;;;;;;5031191;28;20164;-64
2021/05/09 08:37:24;;;;;;;2.97;2.40;;;23.30;99.90;;;;;;5034549;28;20179;-64
2021/05/09 08:39:50;;;;;;;7.43;2.85;;;23.70;99.90;;;;;;5031640;28;20199;-64
2021/05/09 08:42:16;;;;;;;3.03;2.45;;;23.70;99.90;;;;;;5048322;28;20522;-63
2021/05/09 08:44:49;;;;;;;2.70;2.50;;;23.80;99.90;;;;;;5050800;28;20653;-64
2021/05/09 08:47:38;;;;;;;3.80;2.65;;;23.60;99.90;;;;;;5033073;28;20175;-64
2021/05/09 08:50:15;;;;;;;4.20;2.83;;;23.30;99.90;;;;;;5029027;28;20215;-64
2021/05/09 08:52:43;;;;;;;3.53;2.72;;;23.20;99.90;;;;;;5032363;28;20587;-64
2021/05/09 08:55:11;;;;;;;5.95;2.70;;;23.30;99.90;;;;;;5033859;28;20179;-64
2021/05/09 08:57:40;;;;;;;3.00;2.70;;;23.40;99.90;;;;;;5035264;28;20182;-64
2021/05/09 09:00:07;;;;;;;2.70;2.28;;;23.80;99.90;;;;;;5034858;28;20187;-64
2021/05/09 09:02:32;;;;;;;2.58;2.38;;;24.60;99.90;;;;;;5035895;28;20290;-64
2021/05/09 09:04:58;;;;;;;2.60;2.35;;;25.30;99.90;;;;;;5034829;28;20683;-64
2021/05/09 09:07:41;;;;;;;4.68;2.50;;;25.70;99.90;;;;;;5050665;28;20185;-64
2021/05/09 09:10:07;;;;;;;7.40;3.22;;;25.70;99.90;;;;;;5054599;28;20226;-64
2021/05/09 09:12:37;;;;;;;2.40;2.20;;;25.60;99.90;;;;;;5036692;28;20199;-64
2021/05/09 09:15:03;;;;;;;4.20;2.53;;;25.30;99.90;;;;;;5033848;28;20182;-64
2021/05/09 09:17:29;;;;;;;2.80;2.58;;;25.00;99.90;;;;;;5035292;28;20652;-64
2021/05/09 09:20:17;;;;;;;3.15;2.70;;;24.80;99.90;;;;;;5034179;28;20257;-64
2021/05/09 09:22:57;;;;;;;2.55;2.35;;;25.10;99.90;;;;;;5051927;28;20183;-64
2021/05/09 09:25:25;;;;;;;5.05;3.10;;;25.50;99.90;;;;;;5054435;28;20174;-64
2021/05/09 09:27:52;;;;;;;4.38;2.60;;;25.90;99.90;;;;;;5036233;28;20199;-64
2021/05/09 09:30:19;;;;;;;4.28;2.35;;;26.10;99.90;;;;;;5036482;28;20202;-64
2021/05/09 09:33:14;;;;;;;4.93;2.50;;;26.30;99.90;;;;;;5054384;28;20233;-64
2021/05/09 09:35:43;;;;;;;4.65;2.50;;;26.50;99.90;;;;;;5040008;28;20191;-64
2021/05/09 09:38:28;;;;;;;2.88;2.40;;;26.50;99.90;;;;;;5034421;28;20176;-64
2021/05/09 09:41:09;;;;;;;2.30;2.10;;;26.70;99.90;;;;;;5063810;22;20221;-67
2021/05/09 09:43:35;;;;;;;4.97;2.50;;;27.20;99.90;;;;;;5054319;28;20170;-66
2021/05/09 09:46:01;;;;;;;2.67;2.38;;;27.30;99.90;;;;;;5054959;28;20179;-67
2021/05/09 09:48:40;;;;;;;3.45;2.60;;;27.00;99.90;;;;;;5053667;28;20196;-66
2021/05/09 09:51:08;;;;;;;3.40;2.45;;;26.60;99.90;;;;;;5066573;28;20209;-67
2021/05/09 09:53:42;;;;;;;4.70;2.75;;;26.40;99.90;;;;;;5074212;28;20518;-66
2021/05/09 09:56:10;;;;;;;5.50;2.75;;;26.10;99.90;;;;;;5059208;28;20171;-66
2021/05/09 09:58:47;;;;;;;3.28;2.50;;;25.90;99.90;;;;;;5052812;28;20648;-65
2021/05/09 10:01:24;;;;;;;3.00;2.75;;;26.00;99.90;;;;;;5052148;28;20305;-66
2021/05/09 10:03:51;;;;;;;2.88;2.33;;;26.30;99.90;;;;;;5064726;28;20632;-66
2021/05/09 10:06:19;;;;;;;4.80;2.55;;;26.70;99.90;;;;;;5073707;28;20170;-67
2021/05/09 10:08:45;;;;;;;2.42;2.22;;;26.90;99.90;;;;;;5061346;28;20269;-66
2021/05/09 10:11:11;;;;;;;5.35;2.78;;;27.40;99.90;;;;;;5068405;28;20201;-66
2021/05/09 10:13:37;;;;;;;3.10;2.28;;;27.80;99.90;;;;;;5063548;28;20544;-66
2021/05/09 10:16:04;;;;;;;4.43;2.47;;;28.00;99.90;;;;;;5053423;28;20163;-66
2021/05/09 10:18:31;;;;;;;2.75;2.55;;;27.90;99.90;;;;;;5061884;28;20604;-67
2021/05/09 10:20:57;;;;;;;4.18;2.35;;;28.00;99.90;;;;;;5073110;28;20190;-67
2021/05/09 10:23:23;;;;;;;2.70;2.50;;;28.00;99.90;;;;;;5066091;28;20670;-67
2021/05/09 10:26:00;;;;;;;4.60;2.60;;;28.10;99.90;;;;;;5064224;28;20647;-66
2021/05/09 10:28:36;;;;;;;3.35;2.47;;;28.40;99.90;;;;;;5066127;28;20695;-67
2021/05/09 10:31:02;;;;;;;5.15;2.80;;;28.50;99.90;;;;;;5055713;28;20217;-67
2021/05/09 10:33:40;;;;;;;4.32;2.38;;;28.60;99.90;;;;;;5073243;28;20253;-66
2021/05/09 10:36:10;;;;;;;3.17;2.88;;;28.50;99.90;;;;;;5072346;28;20261;-66
2021/05/09 10:39:14;;;;;;;3.25;2.72;;;28.30;99.90;;;;;;5072923;28;20247;-67
2021/05/09 10:41:54;;;;;;;3.15;2.85;;;27.90;99.90;;;;;;5065175;28;20309;-66
2021/05/09 10:44:47;;;;;;;2.60;2.40;;;27.30;99.90;;;;;;5052542;28;20175;-66
2021/05/09 10:47:19;;;;;;;2.58;2.38;;;27.10;99.90;;;;;;5063582;28;20178;-67
2021/05/09 10:50:26;;;;;;;2.40;2.28;;;27.10;99.90;;;;;;5072725;28;20181;-66
2021/05/09 10:52:53;;;;;;;5.75;2.47;;;26.80;99.90;;;;;;5056838;28;20202;-66
2021/05/09 10:55:40;;;;;;;3.33;2.42;;;26.70;99.90;;;;;;5052388;28;20209;-66
2021/05/09 10:58:12;;;;;;;2.97;2.40;;;26.80;99.90;;;;;;5069337;28;20182;-66
2021/05/09 11:00:56;;;;;;;4.25;3.03;;;26.90;99.90;;;;;;5070075;28;20194;-66
2021/05/09 11:06:06;;;;;;;2.45;2.25;;;27.00;99.90;;;;;;5052312;28;20170;-66
2021/05/09 11:08:59;;;;;;;2.90;2.70;;;27.10;99.90;;;;;;5070681;28;20170;-66
2021/05/09 11:11:25;;;;;;;3.38;2.75;;;27.10;99.90;;;;;;5069074;28;20218;-67
2021/05/09 11:16:36;;;;;;;5.20;2.63;;;27.10;99.90;;;;;;5052252;28;20171;-66
2021/05/09 11:19:01;;;;;;;3.53;2.80;;;27.20;99.90;;;;;;5071875;28;20174;-66
2021/05/09 11:21:32;;;;;;;5.25;2.53;;;27.10;99.90;;;;;;5052162;28;20436;-67
2021/05/09 11:24:08;;;;;;;2.83;2.55;;;27.30;99.90;;;;;;5051869;28;20171;-66
2021/05/09 11:26:41;;;;;;;8.45;2.90;;;27.50;99.90;;;;;;5071598;28;20185;-66
2021/05/09 11:29:09;;;;;;;2.97;2.65;;;28.10;99.90;;;;;;5072000;28;20543;-67
2021/05/09 11:31:55;;;;;;;3.35;2.50;;;28.50;99.90;;;;;;5052144;28;20671;-66
2021/05/09 11:34:23;;;;;;;2.60;2.20;;;28.90;99.90;;;;;;5071386;28;20255;-67
2021/05/09 11:36:50;;;;;;;3.40;2.10;;;29.10;99.90;;;;;;5052066;28;20171;-67
2021/05/09 11:39:17;;;;;;;3.88;2.33;;;29.30;99.90;;;;;;5050297;28;20209;-66
2021/05/09 11:41:53;;;;;;;3.45;2.30;;;29.30;99.90;;;;;;5070856;28;20585;-66
2021/05/09 11:44:27;;;;;;;3.00;2.20;;;29.20;99.90;;;;;;5071947;28;20654;-66
2021/05/09 11:46:54;;;;;;;4.07;2.50;;;29.30;99.90;;;;;;5052814;28;20307;-67
2021/05/09 11:49:30;;;;;;;2.50;2.10;;;29.50;99.90;;;;;;5051885;28;20198;-66
2021/05/09 11:51:59;;;;;;;2.65;2.20;;;29.90;99.90;;;;;;5031395;28;20202;-67
2021/05/09 11:54:31;;;;;;;8.10;2.88;;;30.20;99.90;;;;;;5031601;28;20234;-66
2021/05/09 11:57:04;;;;;;;5.97;2.67;;;30.10;99.90;;;;;;5070207;28;20654;-66
2021/05/09 11:59:31;;;;;;;6.38;2.85;;;30.30;99.90;;;;;;5071772;28;20194;-66
2021/05/09 12:01:58;;;;;;;4.00;2.60;;;30.20;99.90;;;;;;5051423;28;20241;-65
2021/05/09 12:04:29;;;;;;;3.92;2.30;;;30.20;99.90;;;;;;5050402;28;20175;-66
2021/05/09 12:06:58;;;;;;;7.35;3.08;;;30.40;99.90;;;;;;5069433;28;20208;-66
2021/05/09 12:09:24;;;;;;;3.83;2.40;;;30.30;99.90;;;;;;5071579;28;20273;-65
2021/05/09 12:11:50;;;;;;;2.53;2.22;;;29.90;99.90;;;;;;5052150;28;20220;-66
2021/05/09 12:14:16;;;;;;;3.90;2.53;;;29.60;99.90;;;;;;5061670;28;20592;-66
2021/05/09 12:16:46;;;;;;;3.60;2.30;;;29.30;99.90;;;;;;5071477;28;20162;-67
2021/05/09 12:19:12;;;;;;;3.88;2.45;;;28.80;99.90;;;;;;5060291;28;20174;-66
2021/05/09 12:21:38;;;;;;;5.55;3.03;;;28.50;99.90;;;;;;5051223;28;20191;-66
2021/05/09 12:24:06;;;;;;;3.80;2.20;;;28.50;99.90;;;;;;5070032;28;20643;-67
2021/05/09 12:26:33;;;;;;;2.72;2.53;;;28.60;99.90;;;;;;5069089;28;20178;-65
2021/05/09 12:29:17;;;;;;;3.78;2.40;;;28.70;99.90;;;;;;5052894;28;20206;-66
2021/05/09 12:31:43;;;;;;;3.88;2.33;;;29.10;99.90;;;;;;5049666;28;20234;-66
2021/05/09 12:34:10;;;;;;;2.72;2.35;;;29.60;99.90;;;;;;5069713;28;20213;-66
2021/05/09 12:36:36;;;;;;;3.22;2.30;;;30.00;99.90;;;;;;5056789;28;20175;-65
2021/05/09 12:39:17;;;;;;;4.55;2.42;;;30.10;99.90;;;;;;5051055;28;20228;-66
2021/05/09 12:41:53;;;;;;;5.07;2.50;;;30.50;99.90;;;;;;5064986;28;20303;-66
2021/05/09 12:44:22;;;;;;;2.45;2.25;;;31.00;99.90;;;;;;5071552;28;20189;-66
2021/05/09 12:46:48;;;;;;;3.25;2.28;;;31.00;99.90;;;;;;5056295;28;20186;-66
2021/05/09 12:49:23;;;;;;;4.80;2.40;;;31.00;99.90;;;;;;5051144;28;20207;-67
2021/05/09 12:52:05;;;;;;;2.90;2.58;;;31.00;99.90;;;;;;5064694;28;20201;-66
2021/05/09 12:54:49;;;;;;;2.17;1.92;;;31.00;98.70;;;;;;5069951;28;20565;-67
2021/05/09 12:57:31;;;;;;;2.40;2.20;;;30.70;99.40;;;;;;5069640;28;20174;-67
2021/05/09 13:00:01;;;;;;;5.90;1.98;;;30.90;98.90;;;;;;5070714;28;20213;-66